createdAt,value
2019-02-15T00:02:16.470Z,103340.27
2019-02-15T00:04:43.558Z,103341.34
2019-02-15T00:07:10.760Z,103346.45
2019-02-15T00:09:37.804Z,103347.22
2019-02-15T00:12:04.882Z,103350.72
2019-02-15T00:14:47.127Z,103354.33
2019-02-15T00:17:16.109Z,103356.59
2019-02-15T00:19:46.882Z,103357.63
2019-02-15T00:22:14.003Z,103358.65
2019-02-15T00:24:41.116Z,103354.03
2019-02-15T00:27:08.307Z,103348.98
2019-02-15T00:29:35.467Z,103354.06
2019-02-15T00:32:02.586Z,103349.38
2019-02-15T00:34:29.632Z,103353.77
2019-02-15T00:36:56.883Z,103353.28
2019-02-15T00:39:23.966Z,103352.27
2019-02-15T00:41:52.856Z,103360.15
2019-02-15T00:45:01.266Z,103351.73
2019-02-15T00:47:48.609Z,103349.05
2019-02-15T00:50:41.324Z,103346.94
2019-02-15T00:53:34.168Z,103356.59
2019-02-15T00:56:21.272Z,103351.52
2019-02-15T00:59:10.866Z,103349.86
2019-02-15T01:02:09.209Z,103351.59
2019-02-15T01:04:54.492Z,103356.06
2019-02-15T01:07:56.619Z,103351.85
2019-02-15T01:10:43.264Z,103352.87
2019-02-15T01:13:13.632Z,103346.17
2019-02-15T01:15:40.672Z,103344.92
2019-02-15T01:18:08.254Z,103341.37
2019-02-15T01:20:35.368Z,103343.26
2019-02-15T01:23:09.660Z,103341.47
2019-02-15T01:25:48.992Z,103343.73
2019-02-15T01:28:41.506Z,103340.23
2019-02-15T01:31:33.943Z,103330.91
2019-02-15T01:34:20.414Z,103339.75
2019-02-15T01:37:07.058Z,103327.69
2019-02-15T01:39:53.848Z,103334.27
2019-02-15T01:42:37.798Z,103327.64
2019-02-15T01:45:13.510Z,103332.80
2019-02-15T01:47:44.394Z,103329.13
2019-02-15T01:50:11.619Z,103318.27
2019-02-15T01:52:38.736Z,103319.71
2019-02-15T01:55:06.537Z,103314.69
2019-02-15T01:57:33.616Z,103314.52
2019-02-15T02:00:00.758Z,103316.45
2019-02-15T02:02:29.216Z,103309.98
2019-02-15T02:04:56.293Z,103310.58
2019-02-15T02:07:23.498Z,103310.53
2019-02-15T02:09:50.642Z,103309.89
2019-02-15T02:12:17.743Z,103306.12
2019-02-15T02:14:44.961Z,103307.74
2019-02-15T02:17:12.003Z,103301.88
2019-02-15T02:19:39.080Z,103295.52
2019-02-15T02:22:06.144Z,103299.30
2019-02-15T02:24:33.284Z,103295.95
2019-02-15T02:27:00.365Z,103298.00
2019-02-15T02:29:27.427Z,103295.52
2019-02-15T02:31:54.497Z,103300.75
2019-02-15T02:34:21.574Z,103287.55
2019-02-15T02:36:50.050Z,103284.25
2019-02-15T02:39:17.138Z,103284.14
2019-02-15T02:41:44.187Z,103283.77
2019-02-15T02:44:12.370Z,103281.56
2019-02-15T02:46:39.444Z,103281.07
2019-02-15T02:49:06.505Z,103278.00
2019-02-15T02:51:33.587Z,103276.22
2019-02-15T02:54:00.695Z,103276.71
2019-02-15T02:56:27.795Z,103272.18
2019-02-15T02:58:59.509Z,103275.25
2019-02-15T03:01:26.638Z,103269.42
2019-02-15T03:03:53.660Z,103269.31
2019-02-15T03:06:20.849Z,103275.28
2019-02-15T03:08:47.952Z,103269.78
2019-02-15T03:11:15.051Z,103272.20
2019-02-15T03:13:42.120Z,103264.45
2019-02-15T03:16:09.257Z,103261.55
2019-02-15T03:18:36.331Z,103264.89
2019-02-15T03:21:03.497Z,103264.28
2019-02-15T03:23:30.608Z,103267.30
2019-02-15T03:25:57.805Z,103263.41
2019-02-15T03:28:24.863Z,103263.45
2019-02-15T03:30:51.985Z,103263.87
2019-02-15T03:33:19.034Z,103257.95
2019-02-15T03:35:54.981Z,103254.30
2019-02-15T03:38:29.171Z,103258.27
2019-02-15T03:40:59.869Z,103264.02
2019-02-15T03:43:26.926Z,103259.97
2019-02-15T03:45:53.961Z,103252.64
2019-02-15T03:48:21.069Z,103252.48
2019-02-15T03:50:48.207Z,103247.69
2019-02-15T03:53:15.289Z,103248.27
2019-02-15T03:55:42.434Z,103245.36
2019-02-15T03:58:09.467Z,103244.65
2019-02-15T04:00:36.558Z,103240.77
2019-02-15T04:03:03.628Z,103240.40
2019-02-15T04:05:31.924Z,103247.61
2019-02-15T04:07:58.992Z,103251.52
2019-02-15T04:10:26.030Z,103250.65
2019-02-15T04:12:53.251Z,103257.48
2019-02-15T04:15:20.488Z,103247.73
2019-02-15T04:17:48.104Z,103252.52
2019-02-15T04:20:15.210Z,103245.16
2019-02-15T04:22:43.404Z,103246.44
2019-02-15T04:25:10.465Z,103241.86
2019-02-15T04:27:37.592Z,103242.78
2019-02-15T04:30:05.613Z,103243.36
2019-02-15T04:32:32.689Z,103242.28
2019-02-15T04:34:59.731Z,103242.48
2019-02-15T04:37:26.786Z,103243.06
2019-02-15T04:39:53.874Z,103238.86
2019-02-15T04:42:20.948Z,103241.98
2019-02-15T04:44:48.020Z,103245.31
2019-02-15T04:47:15.132Z,103241.81
2019-02-15T04:49:42.570Z,103246.23
2019-02-15T04:52:11.259Z,103247.48
2019-02-15T04:54:38.478Z,103245.11
2019-02-15T04:57:05.575Z,103242.02
2019-02-15T04:59:32.664Z,103247.94
2019-02-15T05:01:59.767Z,103254.39
2019-02-15T05:04:26.846Z,103249.02
2019-02-15T05:06:54.026Z,103248.85
2019-02-15T05:09:21.110Z,103244.77
2019-02-15T05:11:48.179Z,103251.61
2019-02-15T05:14:15.325Z,103252.89
2019-02-15T05:16:42.458Z,103239.81
2019-02-15T05:19:09.628Z,103243.31
2019-02-15T05:21:36.696Z,103249.44
2019-02-15T05:24:03.928Z,103244.10
2019-02-15T05:26:31.032Z,103248.89
2019-02-15T05:28:58.172Z,103252.22
2019-02-15T05:31:25.247Z,103251.64
2019-02-15T05:33:52.318Z,103251.10
2019-02-15T05:36:19.435Z,103248.14
2019-02-15T05:38:46.537Z,103246.10
2019-02-15T05:41:13.658Z,103247.02
2019-02-15T05:43:40.755Z,103236.90
2019-02-15T05:46:07.825Z,103237.41
2019-02-15T05:48:34.874Z,103236.11
2019-02-15T05:51:02.080Z,103234.48
2019-02-15T05:53:29.136Z,103235.23
2019-02-15T05:55:56.223Z,103234.48
2019-02-15T05:58:23.628Z,103235.40
2019-02-15T06:00:50.736Z,103234.69
2019-02-15T06:03:17.779Z,103230.28
2019-02-15T06:05:44.847Z,103235.98
2019-02-15T06:08:13.054Z,103234.15
2019-02-15T06:10:40.156Z,103231.91
2019-02-15T06:13:11.947Z,103229.86
2019-02-15T06:15:39.075Z,103236.11
2019-02-15T06:18:06.130Z,103236.86
2019-02-15T06:20:33.196Z,103242.98
2019-02-15T06:23:00.326Z,103235.44
2019-02-15T06:25:27.408Z,103231.02
2019-02-15T06:27:54.548Z,103233.23
2019-02-15T06:30:21.649Z,103232.69
2019-02-15T06:32:48.770Z,103231.77
2019-02-15T06:35:15.833Z,103232.86
2019-02-15T06:37:42.923Z,103236.86
2019-02-15T06:40:09.997Z,103234.86
2019-02-15T06:42:37.052Z,103244.31
2019-02-15T06:45:04.781Z,103248.19
2019-02-15T06:47:31.854Z,103239.14
2019-02-15T06:50:00.378Z,103252.22
2019-02-15T06:52:28.419Z,103244.84
2019-02-15T06:54:55.502Z,103240.56
2019-02-15T06:57:22.545Z,103246.06
2019-02-15T07:00:12.256Z,103243.48
2019-02-15T07:03:14.151Z,103244.23
2019-02-15T07:05:47.806Z,103248.23
2019-02-15T07:08:14.877Z,103247.69
2019-02-15T07:10:41.970Z,103252.23
2019-02-15T07:13:09.255Z,103247.78
2019-02-15T07:15:36.356Z,103249.98
2019-02-15T07:18:03.438Z,103251.81
2019-02-15T07:20:30.531Z,103256.77
2019-02-15T07:22:57.579Z,103251.52
2019-02-15T07:25:24.674Z,103257.73
2019-02-15T07:27:51.980Z,103251.61
2019-02-15T07:30:19.097Z,103258.02
2019-02-15T07:32:46.141Z,103253.56
2019-02-15T07:35:13.404Z,103253.73
2019-02-15T07:37:40.496Z,103254.48
2019-02-15T07:40:08.393Z,103256.43
2019-02-15T07:42:35.658Z,103260.76
2019-02-15T07:45:02.929Z,103256.03
2019-02-15T07:47:31.089Z,103249.47
2019-02-15T07:49:58.193Z,103255.58
2019-02-15T07:52:26.897Z,103252.13
2019-02-15T07:54:56.160Z,103249.06
2019-02-15T07:57:23.384Z,103251.06
2019-02-15T07:59:50.623Z,103251.89
2019-02-15T08:02:17.655Z,103247.59
2019-02-15T08:04:44.751Z,103249.23
2019-02-15T08:11:30.910Z,103241.62
2019-02-15T08:14:02.096Z,103230.53
2019-02-15T08:16:29.323Z,103234.20
2019-02-15T08:18:56.394Z,103236.83
2019-02-15T08:21:23.569Z,103232.39
2019-02-15T08:23:50.627Z,103230.14
2019-02-15T08:26:17.684Z,103223.53
2019-02-15T08:28:44.798Z,103216.98
2019-02-15T08:31:11.859Z,103221.13
2019-02-15T08:33:38.940Z,103211.77
2019-02-15T08:36:06.041Z,103216.05
2019-02-15T08:38:33.133Z,103212.55
2019-02-15T08:41:00.402Z,103211.55
2019-02-15T08:43:27.529Z,103214.13
2019-02-15T08:46:00.720Z,103205.92
2019-02-15T08:48:24.212Z,103207.33
2019-02-15T08:50:51.345Z,103211.57
2019-02-15T08:53:18.407Z,103209.83
2019-02-15T08:55:45.466Z,103203.11
2019-02-15T08:58:12.620Z,103203.29
2019-02-15T09:00:39.675Z,103206.58
2019-02-15T09:03:06.843Z,103207.14
2019-02-15T09:05:49.093Z,103213.61
2019-02-15T09:08:16.157Z,103215.84
2019-02-15T09:10:43.209Z,103210.14
2019-02-15T09:13:10.412Z,103206.14
2019-02-15T09:15:37.490Z,103201.86
2019-02-15T09:18:10.665Z,103199.91
2019-02-15T09:20:37.760Z,103200.05
2019-02-15T09:23:04.808Z,103201.75
2019-02-15T09:25:31.920Z,103194.33
2019-02-15T09:28:18.592Z,103193.15
2019-02-15T09:30:49.957Z,103191.96
2019-02-15T09:33:17.036Z,103191.17
2019-02-15T09:35:44.142Z,103189.33
2019-02-15T09:38:11.226Z,103186.98
2019-02-15T09:40:38.343Z,103179.80
2019-02-15T09:43:05.456Z,103178.44
2019-02-15T09:45:33.052Z,103180.59
2019-02-15T09:48:00.207Z,103181.88
2019-02-15T09:50:27.297Z,103181.81
2019-02-15T09:52:54.349Z,103177.09
2019-02-15T09:55:21.408Z,103174.96
2019-02-15T09:57:48.497Z,103176.75
2019-02-15T10:00:15.550Z,103174.44
2019-02-15T10:03:01.307Z,103177.14
2019-02-15T10:05:28.370Z,103179.17
2019-02-15T10:07:55.657Z,103182.02
2019-02-15T10:10:22.750Z,103180.52
2019-02-15T10:12:49.798Z,103177.62
2019-02-15T10:15:16.866Z,103172.55
2019-02-15T10:17:44.290Z,103175.94
2019-02-15T10:20:11.351Z,103174.25
2019-02-15T10:22:38.445Z,103168.01
2019-02-15T10:25:06.171Z,103163.28
2019-02-15T10:27:33.304Z,103165.50
2019-02-15T10:30:02.493Z,103168.86
2019-02-15T10:32:29.353Z,103169.83
2019-02-15T10:34:56.408Z,103161.78
2019-02-15T10:37:43.699Z,103168.16
2019-02-15T10:40:10.924Z,103161.36
2019-02-15T10:42:38.152Z,103160.79
2019-02-15T10:45:06.457Z,103164.77
2019-02-15T10:47:33.524Z,103164.25
2019-02-15T10:50:00.584Z,103162.08
2019-02-15T10:52:27.820Z,103161.05
2019-02-15T10:54:54.884Z,103157.12
2019-02-15T10:57:22.103Z,103153.83
2019-02-15T10:59:49.284Z,103147.41
2019-02-15T11:02:16.382Z,103145.30
2019-02-15T11:04:43.528Z,103139.92
2019-02-15T11:07:10.603Z,103139.33
2019-02-15T11:09:37.845Z,103134.89
2019-02-15T11:12:05.042Z,103132.45
2019-02-15T11:14:32.184Z,103130.76
2019-02-15T11:16:59.268Z,103128.06
2019-02-15T11:19:26.386Z,103129.20
2019-02-15T11:21:53.469Z,103122.84
2019-02-15T11:24:20.636Z,103118.81
2019-02-15T11:26:47.753Z,103118.02
2019-02-15T11:29:14.860Z,103117.32
2019-02-15T11:31:41.987Z,103112.17
2019-02-15T11:34:27.527Z,103109.95
2019-02-15T11:36:54.583Z,103107.83
2019-02-15T11:39:21.661Z,103102.98
2019-02-15T11:41:48.865Z,103090.77
2019-02-15T11:44:15.936Z,103099.28
2019-02-15T11:46:43.127Z,103090.99
2019-02-15T11:49:11.346Z,103087.14
2019-02-15T11:51:38.424Z,103081.35
2019-02-15T11:54:05.536Z,103074.13
2019-02-15T11:56:32.605Z,103076.85
2019-02-15T11:59:05.135Z,103076.52
2019-02-15T12:01:32.199Z,103074.16
2019-02-15T12:03:59.300Z,103075.34
2019-02-15T12:06:26.371Z,103070.53
2019-02-15T12:08:53.429Z,103061.38
2019-02-15T12:11:38.767Z,103061.44
2019-02-15T12:14:05.857Z,103061.84
2019-02-15T12:16:45.448Z,103055.03
2019-02-15T12:19:12.582Z,103055.40
2019-02-15T12:21:39.699Z,103047.59
2019-02-15T12:24:06.777Z,103040.31
2019-02-15T12:26:33.903Z,103039.94
2019-02-15T12:29:00.979Z,103039.65
2019-02-15T12:31:28.201Z,103029.49
2019-02-15T12:33:55.445Z,103025.73
2019-02-15T12:36:22.658Z,103017.61
2019-02-15T12:38:49.718Z,103009.72
2019-02-15T12:41:16.796Z,103012.94
2019-02-15T12:43:43.841Z,103010.95
2019-02-15T12:46:10.906Z,103008.16
2019-02-15T12:48:38.017Z,103006.84
2019-02-15T12:51:05.079Z,103005.94
2019-02-15T12:53:32.164Z,102991.71
2019-02-15T12:55:59.325Z,102986.30
2019-02-15T13:06:50.723Z,102973.89
2019-02-15T13:10:50.290Z,102972.19
2019-02-15T13:14:13.083Z,102966.91
2019-02-15T13:17:07.666Z,102962.02
2019-02-15T13:23:57.533Z,102948.67
2019-02-15T13:31:23.177Z,102935.20
2019-02-15T13:34:57.683Z,102926.31
2019-02-15T13:41:04.708Z,102919.62
2019-02-15T13:43:31.815Z,102914.59
2019-02-15T13:45:58.857Z,102909.44
2019-02-15T13:48:25.927Z,102900.79
2019-02-15T13:50:53.047Z,102902.27
2019-02-15T13:53:20.125Z,102899.83
2019-02-15T13:55:47.630Z,102896.44
2019-02-15T13:58:16.726Z,102896.70
2019-02-15T14:00:43.830Z,102888.77
2019-02-15T14:03:11.144Z,102880.31
2019-02-15T14:05:38.265Z,102882.72
2019-02-15T14:08:05.532Z,102874.25
2019-02-15T14:10:32.635Z,102869.29
2019-02-15T14:12:59.850Z,102876.81
2019-02-15T14:15:27.373Z,102867.88
2019-02-15T14:17:54.727Z,102862.48
2019-02-15T14:20:22.066Z,102862.52
2019-02-15T14:22:49.331Z,102855.05
2019-02-15T14:25:16.468Z,102851.05
2019-02-15T14:27:43.618Z,102851.20
2019-02-15T14:30:10.820Z,102858.09
2019-02-15T14:32:38.070Z,102848.46
2019-02-15T14:35:05.783Z,102846.93
2019-02-15T14:37:32.833Z,102842.59
2019-02-15T14:40:01.159Z,102838.05
2019-02-15T14:42:28.269Z,102838.91
2019-02-15T14:44:55.338Z,102840.08
2019-02-15T14:47:22.436Z,102834.31
2019-02-15T14:49:49.542Z,102834.38
2019-02-15T14:52:16.813Z,102829.66
2019-02-15T14:54:43.878Z,102822.80
2019-02-15T14:57:10.992Z,102825.16
2019-02-15T14:59:39.040Z,102817.03
2019-02-15T15:02:06.315Z,102814.67
2019-02-15T15:04:33.427Z,102812.63
2019-02-15T15:07:00.503Z,102808.42
2019-02-15T15:09:27.624Z,102803.06
2019-02-15T15:11:54.760Z,102807.98
2019-02-15T15:14:21.855Z,102803.91
2019-02-15T15:16:48.912Z,102796.69
2019-02-15T15:19:46.350Z,102785.64
2019-02-15T15:22:13.910Z,102785.39
2019-02-15T15:24:41.047Z,102787.09
2019-02-15T15:27:08.147Z,102782.33
2019-02-15T15:29:35.217Z,102782.69
2019-02-15T15:32:02.329Z,102774.99
2019-02-15T15:34:29.523Z,102771.48
2019-02-15T15:36:56.656Z,102772.70
2019-02-15T15:39:23.790Z,102767.77
2019-02-15T15:41:50.995Z,102765.23
2019-02-15T15:44:18.057Z,102760.38
2019-02-15T15:46:45.342Z,102764.52
2019-02-15T15:49:12.409Z,102760.55
2019-02-15T15:51:39.507Z,102764.25
2019-02-15T15:54:06.616Z,102764.44
2019-02-15T15:56:33.683Z,102763.89
2019-02-15T15:59:00.761Z,102759.59
2019-02-15T16:01:27.997Z,102757.11
2019-02-15T16:03:55.120Z,102763.00
2019-02-15T16:06:24.690Z,102755.52
2019-02-15T16:08:51.515Z,102754.54
2019-02-15T16:11:18.766Z,102748.80
2019-02-15T16:13:47.647Z,102750.65
2019-02-15T16:16:14.744Z,102750.12
2019-02-15T16:18:42.999Z,102743.90
2019-02-15T16:21:10.085Z,102750.59
2019-02-15T16:23:37.409Z,102751.70
2019-02-15T16:26:04.519Z,102747.81
2019-02-15T16:28:31.643Z,102743.77
2019-02-15T16:30:58.740Z,102746.13
2019-02-15T16:33:26.043Z,102742.43
2019-02-15T16:35:53.107Z,102742.36
2019-02-15T16:38:26.324Z,102743.28
2019-02-15T16:40:53.550Z,102742.86
2019-02-15T16:43:20.608Z,102741.30
2019-02-15T16:45:47.911Z,102744.15
2019-02-15T16:48:15.127Z,102743.83
2019-02-15T16:50:42.183Z,102748.80
2019-02-15T16:53:09.244Z,102746.81
2019-02-15T16:55:36.574Z,102742.94
2019-02-15T16:58:03.668Z,102745.15
2019-02-15T17:00:30.821Z,102756.44
2019-02-15T17:02:57.925Z,102745.97
2019-02-15T17:05:25.133Z,102758.81
2019-02-15T17:07:52.221Z,102755.17
2019-02-15T17:10:19.338Z,102754.92
2019-02-15T17:12:46.426Z,102753.52
2019-02-15T17:15:13.495Z,102754.45
2019-02-15T17:17:40.601Z,102759.20
2019-02-15T17:20:08.599Z,102756.75
2019-02-15T17:22:35.675Z,102753.81
2019-02-15T17:25:04.624Z,102751.96
2019-02-15T17:27:31.701Z,102756.36
2019-02-15T17:29:58.791Z,102755.73
2019-02-15T17:32:25.899Z,102754.59
2019-02-15T17:34:53.047Z,102751.81
2019-02-15T17:37:20.119Z,102748.23
2019-02-15T17:39:47.234Z,102746.65
2019-02-15T17:42:14.353Z,102748.28
2019-02-15T17:44:41.512Z,102750.75
2019-02-15T17:47:10.681Z,102747.98
2019-02-15T17:53:18.597Z,102744.23
2019-02-15T17:55:45.990Z,102743.08
2019-02-15T17:58:13.103Z,102743.14
2019-02-15T18:00:40.249Z,102740.06
2019-02-15T18:03:07.344Z,102738.84
2019-02-15T18:05:34.514Z,102742.02
2019-02-15T18:08:01.729Z,102735.02
2019-02-15T18:10:28.797Z,102738.16
2019-02-15T18:12:55.864Z,102730.05
2019-02-15T18:16:00.660Z,102732.86
2019-02-15T18:22:08.844Z,102725.83
2019-02-15T18:24:35.949Z,102718.84
2019-02-15T18:27:03.561Z,102721.28
2019-02-15T18:29:30.824Z,102726.22
2019-02-15T18:32:32.446Z,102729.34
2019-02-15T18:34:59.617Z,102725.13
2019-02-15T18:37:26.816Z,102716.45
2019-02-15T18:40:00.112Z,102717.84
2019-02-15T18:42:27.523Z,102719.73
2019-02-15T18:44:54.636Z,102712.03
2019-02-15T18:47:21.841Z,102707.62
2019-02-15T18:49:48.969Z,102708.80
2019-02-15T18:52:16.214Z,102709.73
2019-02-15T18:54:43.375Z,102702.34
2019-02-15T18:57:10.593Z,102700.41
2019-02-15T19:03:20.253Z,102696.07
2019-02-15T19:05:47.599Z,102697.88
2019-02-15T19:08:14.693Z,102692.47
2019-02-15T19:10:42.031Z,102691.96
2019-02-15T19:13:09.099Z,102690.89
2019-02-15T19:15:36.238Z,102693.83
2019-02-15T19:18:03.457Z,102693.73
2019-02-15T19:20:30.544Z,102691.83
2019-02-15T19:22:57.860Z,102684.37
2019-02-15T19:25:26.158Z,102686.28
2019-02-15T19:27:53.474Z,102684.04
2019-02-15T19:30:21.792Z,102685.39
2019-02-15T19:32:48.968Z,102690.55
2019-02-15T19:35:16.249Z,102687.33
2019-02-15T19:37:43.346Z,102688.64
2019-02-15T19:40:11.465Z,102688.31
2019-02-15T19:42:39.812Z,102689.15
2019-02-15T19:45:10.050Z,102689.77
2019-02-15T19:47:37.349Z,102680.05
2019-02-15T19:50:06.673Z,102682.48
2019-02-15T19:52:33.752Z,102679.97
2019-02-15T19:55:00.929Z,102675.44
2019-02-15T19:57:28.677Z,102679.66
2019-02-15T20:00:15.900Z,102684.30
2019-02-15T20:02:47.458Z,102679.17
2019-02-15T20:05:14.570Z,102680.48
2019-02-15T20:07:41.728Z,102677.56
2019-02-15T20:10:45.453Z,102678.36
2019-02-15T20:13:16.888Z,102676.95
2019-02-15T20:15:43.950Z,102675.64
2019-02-15T20:18:11.028Z,102673.53
2019-02-15T20:20:38.255Z,102676.95
2019-02-15T20:23:05.436Z,102676.35
2019-02-15T20:25:32.668Z,102677.76
2019-02-15T20:27:59.845Z,102679.77
2019-02-15T20:30:26.976Z,102679.37
2019-02-15T20:32:54.054Z,102674.74
2019-02-15T20:35:21.182Z,102675.05
2019-02-15T20:37:48.394Z,102673.43
2019-02-15T20:40:15.506Z,102674.23
2019-02-15T20:43:37.724Z,102676.95
2019-02-15T20:46:04.795Z,102673.42
2019-02-15T20:48:31.875Z,102677.76
2019-02-15T20:50:59.086Z,102684.89
2019-02-15T20:53:26.251Z,102680.45
2019-02-15T20:56:37.299Z,102688.88
2019-02-15T20:59:04.383Z,102684.45
2019-02-15T21:01:31.560Z,102680.82
2019-02-15T21:03:58.891Z,102681.33
2019-02-15T21:06:26.089Z,102683.66
2019-02-15T21:09:11.588Z,102680.80
2019-02-15T21:11:38.672Z,102679.19
2019-02-15T21:14:06.118Z,102678.36
2019-02-15T21:16:34.475Z,102683.06
2019-02-15T21:19:01.570Z,102681.23
2019-02-15T21:21:28.636Z,102682.83
2019-02-15T21:23:55.818Z,102678.31
2019-02-15T21:26:22.995Z,102680.97
2019-02-15T21:29:28.734Z,102683.95
2019-02-15T21:31:57.084Z,102679.60
2019-02-15T21:35:07.434Z,102680.77
2019-02-15T21:37:34.772Z,102679.53
2019-02-15T21:40:01.854Z,102676.30
2019-02-15T21:42:29.039Z,102676.98
2019-02-15T21:44:56.190Z,102670.84
2019-02-15T21:47:23.279Z,102674.78
2019-02-15T21:49:50.692Z,102674.73
2019-02-15T21:52:18.859Z,102679.52
2019-02-15T21:54:45.953Z,102680.63
2019-02-15T21:57:13.343Z,102670.36
2019-02-15T21:59:40.446Z,102669.06
2019-02-15T22:02:07.707Z,102678.55
2019-02-15T22:04:34.816Z,102672.55
2019-02-15T22:07:01.986Z,102669.71
2019-02-15T22:09:29.228Z,102669.09
2019-02-15T22:11:56.446Z,102663.41
2019-02-15T22:14:23.586Z,102670.39
2019-02-15T22:16:50.656Z,102661.88
2019-02-15T22:19:17.758Z,102669.66
2019-02-15T22:21:44.946Z,102670.62
2019-02-15T22:24:12.048Z,102660.37
2019-02-15T22:26:39.297Z,102656.52
2019-02-15T22:29:06.479Z,102651.86
2019-02-15T22:31:33.673Z,102653.28
2019-02-15T22:34:00.775Z,102648.45
2019-02-15T22:36:27.898Z,102648.51
2019-02-15T22:38:56.085Z,102646.63
2019-02-15T22:41:23.204Z,102647.75
2019-02-15T22:43:52.513Z,102651.83
2019-02-15T22:46:19.572Z,102641.73
2019-02-15T22:48:46.663Z,102644.62
2019-02-15T22:51:13.803Z,102647.83
2019-02-15T22:53:40.984Z,102643.57
2019-02-15T22:56:08.080Z,102650.52
2019-02-15T22:58:42.726Z,102652.63
2019-02-15T23:01:13.711Z,102660.87
2019-02-15T23:03:40.835Z,102653.65
2019-02-15T23:06:07.964Z,102653.56
2019-02-15T23:08:35.440Z,102654.59
2019-02-15T23:11:03.583Z,102654.32
2019-02-15T23:13:30.827Z,102657.98
2019-02-15T23:15:57.910Z,102650.22
2019-02-15T23:18:49.855Z,102653.64
2019-02-15T23:21:17.023Z,102650.72
2019-02-15T23:23:44.098Z,102656.71
2019-02-15T23:26:11.316Z,102659.98
2019-02-15T23:28:38.389Z,102657.02
2019-02-15T23:31:05.606Z,102655.47
2019-02-15T23:33:32.735Z,102656.69
2019-02-15T23:35:59.883Z,102655.80
2019-02-15T23:38:28.608Z,102660.09
2019-02-15T23:40:55.682Z,102657.57
2019-02-15T23:43:29.815Z,102659.69
2019-02-15T23:45:57.010Z,102663.09
2019-02-15T23:48:24.090Z,102667.91
2019-02-15T23:50:54.869Z,102665.55
2019-02-15T23:53:20.324Z,102658.66
2019-02-15T23:55:47.390Z,102658.16
2019-02-15T23:58:14.457Z,102656.34
